Time;durP1;ratioP1;P1;durP2;ratioP2;P2;SDS_P1;SDS_P2;PMS_P1;PMS_P2;Temp;Humidity;BMP_temperature;BMP_pressure;BME280_temperature;BME280_humidity;BME280_pressure;Samples;Min_cycle;Max_cycle;Signal;HPM_P1;HPM_P2
2023/08/13 00:00:45;;;;;;;7.03;3.25;;;;;;;24.11;51.86;101739.34;5017963;28;20385;-33
2023/08/13 00:03:12;;;;;;;9.70;3.22;;;;;;;24.10;52.63;101734.13;5020732;28;20143;-33
2023/08/13 00:05:38;;;;;;;9.02;3.67;;;;;;;24.10;52.24;101739.53;5019854;28;20065;-34
2023/08/13 00:08:05;;;;;;;9.43;3.53;;;;;;;24.08;52.50;101731.59;5018789;28;20037;-33
2023/08/13 00:10:33;;;;;;;11.02;3.58;;;;;;;24.08;52.63;101737.03;5022314;28;20046;-34
2023/08/13 00:12:59;;;;;;;9.02;3.10;;;;;;;24.09;51.95;101740.56;5026259;28;20438;-33
2023/08/13 00:15:26;;;;;;;12.32;3.45;;;;;;;24.07;52.38;101735.31;5021165;28;20049;-34
2023/08/13 00:17:53;;;;;;;6.20;2.70;;;;;;;24.07;52.22;101731.75;5017701;28;20417;-33
2023/08/13 00:20:19;;;;;;;8.05;3.00;;;;;;;24.05;52.01;101726.53;5016455;28;20100;-34
2023/08/13 00:22:46;;;;;;;8.27;3.20;;;;;;;24.05;52.58;101726.53;5021296;28;20089;-34
2023/08/13 00:25:12;;;;;;;9.20;3.15;;;;;;;24.05;52.28;101728.38;5024965;28;20107;-33
2023/08/13 00:27:39;;;;;;;6.00;2.70;;;;;;;24.04;52.72;101729.38;5019169;28;20073;-34
2023/08/13 00:30:06;;;;;;;7.15;3.17;;;;;;;24.03;52.54;101728.53;5024762;28;20132;-33
2023/08/13 00:32:33;;;;;;;9.25;3.28;;;;;;;24.03;52.26;101733.13;5021359;28;20053;-34
2023/08/13 00:34:59;;;;;;;10.25;3.17;;;;;;;24.03;52.16;101735.81;5026067;28;20485;-33
2023/08/13 00:37:26;;;;;;;6.60;2.80;;;;;;;24.01;52.03;101725.19;5024047;28;20056;-33
2023/08/13 00:39:53;;;;;;;6.00;2.58;;;;;;;24.01;52.73;101718.91;5020968;28;20131;-33
2023/08/13 00:42:19;;;;;;;7.68;2.72;;;;;;;24.01;52.15;101727.88;5022366;28;20065;-34
2023/08/13 00:44:46;;;;;;;6.20;3.13;;;;;;;24.01;52.26;101733.28;5023462;28;20081;-33
2023/08/13 00:47:12;;;;;;;10.80;3.53;;;;;;;23.99;52.17;101738.03;5025555;28;20110;-34
2023/08/13 00:49:39;;;;;;;9.02;3.28;;;;;;;24.00;52.12;101726.19;5023841;28;20046;-34
2023/08/13 00:52:06;;;;;;;8.05;3.03;;;;;;;23.99;52.34;101726.34;5025477;28;20064;-34
2023/08/13 00:54:34;;;;;;;7.07;2.60;;;;;;;24.00;52.85;101728.03;5029673;28;20053;-34
2023/08/13 00:57:02;;;;;;;8.30;2.78;;;;;;;23.99;52.66;101720.94;5027777;28;20416;-34
2023/08/13 00:59:31;;;;;;;9.68;3.10;;;;;;;23.98;52.68;101727.38;5025903;28;20042;-33
2023/08/13 01:01:58;;;;;;;11.05;3.28;;;;;;;23.97;52.63;101725.69;5022644;28;20057;-33
2023/08/13 01:04:25;;;;;;;8.48;2.90;;;;;;;23.96;53.08;101722.16;5023957;28;20065;-34
2023/08/13 01:07:26;;;;;;;8.15;3.08;;;;;;;23.96;52.55;101734.81;5023574;28;20061;-33
2023/08/13 01:10:14;;;;;;;9.45;3.50;;;;;;;23.97;52.77;101731.09;5026789;28;20426;-33
2023/08/13 01:12:41;;;;;;;8.75;3.10;;;;;;;23.97;53.32;101726.53;5024342;28;20053;-33
2023/08/13 01:15:11;;;;;;;8.20;2.80;;;;;;;23.95;52.98;101725.84;5024430;28;20060;-33
2023/08/13 01:17:39;;;;;;;10.43;2.88;;;;;;;23.95;53.20;101725.84;5022642;28;20401;-33
2023/08/13 01:20:07;;;;;;;6.03;2.60;;;;;;;23.94;52.96;101718.75;5019678;28;20081;-33
2023/08/13 01:22:38;;;;;;;8.48;2.90;;;;;;;23.94;52.81;101720.63;5021789;28;20080;-33
2023/08/13 01:25:09;;;;;;;6.72;2.70;;;;;;;23.93;53.39;101725.19;5018523;28;20132;-34
2023/08/13 01:27:42;;;;;;;6.60;2.60;;;;;;;23.92;53.46;101726.22;5022079;28;20107;-33
2023/08/13 01:30:34;;;;;;;8.18;3.15;;;;;;;23.91;52.80;101726.38;5019562;28;20377;-34
2023/08/13 01:33:03;;;;;;;8.65;2.55;;;;;;;23.91;52.61;101716.38;5017688;28;20104;-34
2023/08/13 01:35:33;;;;;;;7.63;2.50;;;;;;;23.89;53.29;101711.16;5019910;28;20052;-34
2023/08/13 01:38:01;;;;;;;5.43;2.80;;;;;;;23.88;53.30;101708.63;5019940;28;20128;-34
2023/08/13 01:40:29;;;;;;;6.95;2.38;;;;;;;23.87;53.12;101707.75;5023245;28;20128;-34
2023/08/13 01:42:56;;;;;;;5.72;2.38;;;;;;;23.87;52.78;101720.44;5020833;28;20357;-34
2023/08/13 01:45:22;;;;;;;6.30;2.33;;;;;;;23.86;53.09;101716.06;5018230;28;20057;-34
2023/08/13 01:47:49;;;;;;;5.18;2.20;;;;;;;23.86;52.64;101721.47;5019715;28;20049;-34
2023/08/13 01:50:16;;;;;;;6.22;2.15;;;;;;;23.84;52.85;101718.06;5019295;28;20437;-34
2023/08/13 01:52:43;;;;;;;7.20;2.40;;;;;;;23.82;52.79;101714.69;5020536;28;20302;-34
2023/08/13 01:55:10;;;;;;;6.00;2.15;;;;;;;23.82;53.11;101714.69;5021664;28;20053;-34
2023/08/13 01:57:36;;;;;;;7.47;2.20;;;;;;;23.81;53.40;101721.97;5018491;28;20099;-34
2023/08/13 02:00:04;;;;;;;7.65;2.03;;;;;;;23.81;52.78;101716.56;5015940;28;20441;-34
2023/08/13 02:02:31;;;;;;;9.10;2.33;;;;;;;23.82;53.04;101714.69;5021529;28;20045;-34
2023/08/13 02:04:58;;;;;;;6.30;2.30;;;;;;;23.80;53.29;101712.19;5022382;28;20397;-34
2023/08/13 02:07:24;;;;;;;7.82;2.30;;;;;;;23.81;53.02;101721.97;5017857;28;20100;-34
2023/08/13 02:09:51;;;;;;;6.03;2.28;;;;;;;23.81;53.55;101719.28;5018673;28;20056;-34
2023/08/13 02:12:17;;;;;;;5.65;2.45;;;;;;;23.80;52.96;101716.72;5016716;28;20060;-34
2023/08/13 02:14:45;;;;;;;4.40;1.83;;;;;;;23.79;53.29;101717.75;5019585;28;20445;-34
2023/08/13 02:17:14;;;;;;;7.57;2.38;;;;;;;23.78;53.47;101718.78;5018109;28;20436;-34
2023/08/13 02:19:41;;;;;;;5.93;2.15;;;;;;;23.78;53.14;101713.34;5020945;28;20460;-34
2023/08/13 02:22:08;;;;;;;4.97;2.00;;;;;;;23.78;53.69;101721.47;5021189;28;20049;-34
2023/08/13 02:24:34;;;;;;;8.35;2.33;;;;;;;23.77;53.49;101717.09;5017381;28;20306;-34
2023/08/13 02:27:01;;;;;;;5.43;2.20;;;;;;;23.77;53.72;101715.22;5018790;28;20184;-34
2023/08/13 02:29:28;;;;;;;4.55;2.08;;;;;;;23.77;53.00;101714.38;5019251;28;20049;-34
2023/08/13 02:31:54;;;;;;;8.23;2.33;;;;;;;23.76;53.36;101716.25;5019816;28;20152;-34
2023/08/13 02:34:22;;;;;;;5.25;2.03;;;;;;;23.75;53.39;101709.13;5020401;28;20542;-34
2023/08/13 02:36:50;;;;;;;8.65;2.67;;;;;;;23.75;53.51;101708.28;5017543;28;20061;-34
2023/08/13 02:39:17;;;;;;;5.55;2.10;;;;;;;23.74;53.72;101701.19;5017469;28;20099;-34
2023/08/13 02:41:43;;;;;;;5.72;2.00;;;;;;;23.74;53.96;101706.59;5017926;28;20139;-34
2023/08/13 02:44:10;;;;;;;8.05;2.40;;;;;;;23.73;53.80;101711.16;5016097;28;20095;-34
2023/08/13 02:46:37;;;;;;;4.63;1.67;;;;;;;23.73;53.50;101710.31;5022363;28;20137;-34
2023/08/13 02:49:03;;;;;;;5.57;2.55;;;;;;;23.71;53.93;101707.75;5021837;28;20038;-34
2023/08/13 02:51:30;;;;;;;7.85;2.47;;;;;;;23.71;53.83;101709.63;5020333;28;20425;-34
2023/08/13 02:53:57;;;;;;;6.47;2.20;;;;;;;23.71;53.97;101707.75;5025260;28;20115;-34
2023/08/13 02:56:23;;;;;;;5.47;2.20;;;;;;;23.70;53.33;101702.53;5024269;28;20079;-34
2023/08/13 02:58:50;;;;;;;4.35;1.75;;;;;;;23.70;53.62;101702.53;5026346;28;20053;-34
2023/08/13 03:01:17;;;;;;;7.30;2.20;;;;;;;23.70;53.42;101700.66;5022679;28;20144;-34
2023/08/13 03:03:45;;;;;;;6.82;1.88;;;;;;;23.69;53.91;101708.97;5023193;28;20408;-34
2023/08/13 03:06:22;;;;;;;3.38;1.70;;;;;;;23.67;53.44;101703.72;5024326;28;20092;-34
2023/08/13 03:08:49;;;;;;;7.28;2.65;;;;;;;23.67;53.50;101697.44;5022491;28;20345;-34
2023/08/13 03:11:15;;;;;;;7.72;2.28;;;;;;;23.68;53.70;101701.84;5024865;28;20103;-34
2023/08/13 03:13:42;;;;;;;5.00;2.22;;;;;;;23.66;53.97;101704.72;5027336;28;20417;-34
2023/08/13 03:16:09;;;;;;;4.93;1.90;;;;;;;23.67;53.70;101705.56;5027424;28;20053;-34
2023/08/13 03:18:36;;;;;;;5.82;1.95;;;;;;;23.67;54.13;101711.81;5022185;28;20049;-34
2023/08/13 03:21:03;;;;;;;4.88;2.00;;;;;;;23.66;53.58;101706.59;5020955;28;20056;-34
2023/08/13 03:23:32;;;;;;;5.95;2.03;;;;;;;23.64;53.99;101702.19;5017697;28;20401;-34
2023/08/13 03:26:00;;;;;;;6.57;2.20;;;;;;;23.66;53.73;101703.88;5020781;28;20090;-34
2023/08/13 03:28:26;;;;;;;4.82;2.10;;;;;;;23.64;53.86;101699.47;5018377;28;20089;-34
2023/08/13 03:31:00;;;;;;;7.43;2.22;;;;;;;23.63;53.88;101696.91;5019670;28;20100;-34
2023/08/13 03:33:27;;;;;;;4.65;1.90;;;;;;;23.64;54.32;101694.06;5018719;28;20437;-34
2023/08/13 03:35:54;;;;;;;6.40;2.28;;;;;;;23.63;53.59;101703.16;5018566;28;20183;-34
2023/08/13 03:38:20;;;;;;;5.65;1.98;;;;;;;23.62;53.87;101698.78;5015701;28;20046;-34
2023/08/13 03:40:47;;;;;;;8.00;1.83;;;;;;;23.61;54.00;101702.50;5019262;28;20049;-34
2023/08/13 03:43:14;;;;;;;4.85;1.80;;;;;;;23.61;54.00;101709.78;5019315;28;20089;-34
2023/08/13 03:45:41;;;;;;;6.95;2.20;;;;;;;23.60;53.83;101706.25;5020880;28;20196;-34
2023/08/13 03:48:08;;;;;;;5.75;1.88;;;;;;;23.60;53.65;101700.81;5021598;28;20144;-34
2023/08/13 03:50:39;;;;;;;6.60;1.90;;;;;;;23.60;54.29;101706.25;5020942;28;20392;-34
2023/08/13 03:53:06;;;;;;;2.65;1.45;;;;;;;23.58;54.20;101705.53;5023616;28;20785;-34
2023/08/13 03:55:33;;;;;;;7.22;2.20;;;;;;;23.58;53.64;101719.06;5024145;28;20449;-34
2023/08/13 03:57:59;;;;;;;7.25;2.00;;;;;;;23.56;54.09;101702.19;5022602;28;20042;-34
2023/08/13 04:00:26;;;;;;;5.78;1.90;;;;;;;23.58;53.69;101707.41;5022077;28;20108;-34
2023/08/13 04:02:53;;;;;;;5.55;1.45;;;;;;;23.57;53.76;101720.09;5019552;28;20134;-34
2023/08/13 04:05:20;;;;;;;4.13;1.45;;;;;;;23.56;54.16;101722.97;5020197;28;20056;-34
2023/08/13 04:07:46;;;;;;;7.32;2.40;;;;;;;23.55;53.97;101714.00;5020219;28;20050;-34
2023/08/13 04:10:13;;;;;;;5.60;1.95;;;;;;;23.55;54.34;101710.44;5021971;28;20726;-34
2023/08/13 04:12:39;;;;;;;6.43;1.60;;;;;;;23.54;54.00;101723.13;5022565;28;20472;-34
2023/08/13 04:15:07;;;;;;;4.60;1.50;;;;;;;23.55;54.29;101724.81;5022921;28;20176;-34
2023/08/13 04:17:33;;;;;;;3.40;1.40;;;;;;;23.54;54.30;101722.28;5019291;28;20102;-34
2023/08/13 04:20:00;;;;;;;6.88;1.67;;;;;;;23.54;54.36;101719.59;5021308;28;20053;-34
2023/08/13 04:22:26;;;;;;;7.80;2.00;;;;;;;23.53;54.13;101724.16;5019584;28;20115;-34
2023/08/13 04:24:53;;;;;;;4.38;1.30;;;;;;;23.53;54.12;101724.16;5019646;28;20585;-34
2023/08/13 04:27:20;;;;;;;4.22;1.60;;;;;;;23.53;54.28;101715.19;5022403;28;20062;-34
2023/08/13 04:29:46;;;;;;;4.45;1.55;;;;;;;23.53;54.59;101723.31;5021205;28;20133;-34
2023/08/13 04:32:13;;;;;;;4.70;1.70;;;;;;;23.53;54.69;101721.44;5020272;28;20053;-34
2023/08/13 04:34:40;;;;;;;5.63;1.80;;;;;;;23.53;54.86;101718.75;5022693;28;20435;-33
2023/08/13 04:37:06;;;;;;;5.03;1.88;;;;;;;23.53;54.54;101723.31;5017771;28;20095;-33
2023/08/13 04:39:33;;;;;;;3.45;1.40;;;;;;;23.52;54.31;101717.06;5019077;28;20104;-33
2023/08/13 04:42:00;;;;;;;5.00;1.75;;;;;;;23.53;54.57;101710.63;5020440;28;20046;-34
2023/08/13 04:44:27;;;;;;;5.57;1.90;;;;;;;23.53;54.43;101724.16;5023062;28;20587;-34
2023/08/13 04:46:54;;;;;;;4.82;1.48;;;;;;;23.53;54.36;101726.03;5022149;28;20195;-34
2023/08/13 04:49:20;;;;;;;2.72;1.45;;;;;;;23.54;54.97;101725.84;5028460;28;20145;-34
2023/08/13 04:51:47;;;;;;;2.88;1.25;;;;;;;23.54;54.74;101727.72;5027221;28;20442;-34
2023/08/13 04:54:13;;;;;;;7.82;2.08;;;;;;;23.54;54.96;101725.84;5026747;28;20053;-34
2023/08/13 04:56:40;;;;;;;3.42;1.40;;;;;;;23.55;54.17;101723.97;5024606;28;20072;-34
2023/08/13 04:59:07;;;;;;;4.25;1.50;;;;;;;23.55;54.57;101724.81;5023598;28;20049;-34
2023/08/13 05:01:33;;;;;;;3.55;1.60;;;;;;;23.56;54.94;101733.81;5024023;28;20050;-34
2023/08/13 05:04:00;;;;;;;3.90;1.13;;;;;;;23.57;54.43;101730.91;5020251;28;20077;-34
2023/08/13 05:06:27;;;;;;;4.80;1.50;;;;;;;23.58;54.71;101732.59;5025455;28;20041;-34
2023/08/13 05:08:53;;;;;;;3.65;1.20;;;;;;;23.58;54.35;101724.50;5028240;28;20046;-34
2023/08/13 05:11:20;;;;;;;4.57;1.77;;;;;;;23.59;54.82;101725.34;5025246;28;20409;-34
2023/08/13 05:13:47;;;;;;;3.38;1.35;;;;;;;23.60;54.17;101732.47;5027442;28;20053;-34
2023/08/13 05:16:13;;;;;;;4.70;1.42;;;;;;;23.60;54.00;101724.34;5022410;28;20083;-34
2023/08/13 05:18:40;;;;;;;5.10;1.70;;;;;;;23.60;54.05;101725.19;5019891;28;20045;-34
2023/08/13 05:21:07;;;;;;;5.80;1.42;;;;;;;23.60;54.17;101727.03;5019605;28;20073;-34
2023/08/13 05:23:34;;;;;;;5.07;1.63;;;;;;;23.59;54.53;101737.00;5021829;28;20061;-34
2023/08/13 05:26:01;;;;;;;3.63;1.58;;;;;;;23.59;54.49;101731.59;5022477;28;20437;-34
2023/08/13 05:28:27;;;;;;;4.40;1.38;;;;;;;23.59;54.05;101728.03;5017383;28;20044;-34
2023/08/13 05:30:54;;;;;;;4.97;1.48;;;;;;;23.57;54.62;101730.91;5019008;28;20116;-34
2023/08/13 05:33:21;;;;;;;4.80;1.70;;;;;;;23.58;54.38;101727.19;5017520;28;20042;-34
2023/08/13 05:35:47;;;;;;;8.85;1.60;;;;;;;23.58;54.38;101729.06;5017463;28;20135;-34
2023/08/13 05:38:14;;;;;;;7.78;2.30;;;;;;;23.57;54.77;101728.22;5017669;28;20437;-34
2023/08/13 05:40:40;;;;;;;6.13;2.28;;;;;;;23.58;54.58;101724.50;5020568;28;20111;-34
2023/08/13 05:43:07;;;;;;;6.15;1.77;;;;;;;23.60;54.41;101732.47;5018643;28;20053;-34
2023/08/13 05:45:34;;;;;;;6.22;1.83;;;;;;;23.59;54.45;101728.88;5020436;28;20144;-34
2023/08/13 05:48:00;;;;;;;4.45;1.80;;;;;;;23.59;54.14;101728.88;5019703;28;20089;-34
2023/08/13 05:50:28;;;;;;;3.17;1.35;;;;;;;23.61;54.09;101737.69;5022075;28;20053;-34
2023/08/13 05:52:55;;;;;;;4.05;1.42;;;;;;;23.61;54.60;101734.16;5017041;28;20053;-34
2023/08/13 05:55:21;;;;;;;4.47;1.50;;;;;;;23.62;54.52;101735.81;5018421;28;20054;-34
2023/08/13 05:57:48;;;;;;;3.63;1.30;;;;;;;23.63;54.31;101737.50;5018292;28;20904;-34
2023/08/13 06:00:16;;;;;;;7.50;1.73;;;;;;;23.63;54.77;101732.09;5019898;28;20100;-34
2023/08/13 06:02:43;;;;;;;5.15;1.55;;;;;;;23.65;54.34;101735.50;5016602;28;20873;-34
2023/08/13 06:05:09;;;;;;;4.35;1.38;;;;;;;23.65;54.07;101735.50;5018671;28;20054;-34
2023/08/13 06:07:36;;;;;;;5.55;1.35;;;;;;;23.67;53.90;101738.91;5014277;28;20054;-33
2023/08/13 06:10:05;;;;;;;5.03;1.25;;;;;;;23.68;54.26;101734.31;5021439;28;20042;-34
2023/08/13 06:12:32;;;;;;;7.18;1.50;;;;;;;23.68;53.78;101737.03;5018998;28;20046;-33
2023/08/13 06:14:59;;;;;;;6.00;1.40;;;;;;;23.68;53.90;101737.91;5022009;28;20061;-33
2023/08/13 06:17:26;;;;;;;7.85;2.08;;;;;;;23.68;54.19;101734.31;5020594;28;20120;-34
2023/08/13 06:19:53;;;;;;;3.60;1.30;;;;;;;23.69;54.16;101739.59;5014305;28;20048;-34
2023/08/13 06:22:19;;;;;;;5.15;1.35;;;;;;;23.71;54.00;101747.53;5014620;28;20159;-33
2023/08/13 06:24:46;;;;;;;9.20;2.17;;;;;;;23.71;53.83;101740.25;5019108;28;20050;-34
2023/08/13 06:27:13;;;;;;;10.68;2.28;;;;;;;23.72;53.99;101741.09;5015957;28;20049;-33
2023/08/13 06:29:39;;;;;;;10.45;1.67;;;;;;;23.72;53.48;101736.56;5021389;28;20128;-34
2023/08/13 06:32:21;;;;;;;6.75;2.08;;;;;;;23.72;54.02;101743.78;5019918;28;20049;-34
2023/08/13 06:34:47;;;;;;;8.80;1.92;;;;;;;23.72;53.41;101735.69;5016673;28;20084;-34
2023/08/13 06:37:14;;;;;;;8.25;2.88;;;;;;;23.72;53.70;101746.50;5016003;28;20057;-34
2023/08/13 06:39:41;;;;;;;8.93;2.35;;;;;;;23.72;53.92;101730.25;5018950;28;20038;-34
2023/08/13 06:42:07;;;;;;;6.47;2.50;;;;;;;23.71;53.49;101742.94;5023789;28;20099;-34
2023/08/13 06:44:34;;;;;;;7.00;2.90;;;;;;;23.71;53.63;101739.41;5024868;28;20099;-34
2023/08/13 06:47:00;;;;;;;10.90;2.50;;;;;;;23.71;53.65;101739.41;5022190;28;20045;-34
2023/08/13 06:49:27;;;;;;;15.15;3.03;;;;;;;23.71;53.60;101740.25;5020439;28;20037;-34
2023/08/13 06:51:54;;;;;;;9.27;2.63;;;;;;;23.71;53.77;101737.53;5020397;28;20064;-34
2023/08/13 06:54:20;;;;;;;9.63;3.05;;;;;;;23.70;53.90;101743.13;5022683;28;20115;-34
2023/08/13 06:56:47;;;;;;;6.78;2.42;;;;;;;23.70;53.35;101741.28;5024363;28;20049;-34
2023/08/13 06:59:13;;;;;;;21.25;4.60;;;;;;;23.71;54.12;101728.56;5018845;28;20143;-34
2023/08/13 07:01:40;;;;;;;18.33;3.83;;;;;;;23.71;53.52;101734.00;5023991;28;20128;-34
2023/08/13 07:04:07;;;;;;;19.35;4.75;;;;;;;23.69;54.31;101742.28;5021599;28;20192;-34
2023/08/13 07:06:34;;;;;;;14.45;3.65;;;;;;;23.69;53.50;101741.44;5014434;28;20515;-34
2023/08/13 07:09:03;;;;;;;13.43;3.70;;;;;;;23.68;53.64;101745.16;5022247;28;20077;-34
2023/08/13 07:11:32;;;;;;;19.85;3.88;;;;;;;23.67;54.17;101738.91;5022255;28;20353;-34
2023/08/13 07:13:59;;;;;;;16.17;3.42;;;;;;;23.65;54.09;101749.03;5019338;28;20057;-34
2023/08/13 07:16:25;;;;;;;12.57;3.33;;;;;;;23.64;53.83;101744.63;5020405;28;20700;-34
2023/08/13 07:18:52;;;;;;;12.20;2.88;;;;;;;23.64;54.34;101742.78;5022863;28;20660;-34
2023/08/13 07:21:18;;;;;;;12.25;2.50;;;;;;;23.63;54.00;101732.09;5026330;28;20392;-34
2023/08/13 07:23:45;;;;;;;8.45;1.85;;;;;;;23.60;53.80;101749.53;5024719;28;20055;-34
2023/08/13 07:26:12;;;;;;;12.77;2.78;;;;;;;23.60;53.70;101737.88;5023457;28;20050;-34
2023/08/13 07:28:40;;;;;;;13.95;3.00;;;;;;;23.61;54.49;101736.84;5021773;28;20049;-33
2023/08/13 07:31:06;;;;;;;10.88;2.65;;;;;;;23.61;54.04;101742.25;5024341;28;20103;-34
2023/08/13 07:33:34;;;;;;;9.45;2.50;;;;;;;23.62;54.39;101746.66;5024855;28;20069;-34
2023/08/13 07:36:02;;;;;;;11.38;2.45;;;;;;;23.60;54.08;101738.72;5020275;28;20613;-34
2023/08/13 07:38:29;;;;;;;10.57;2.50;;;;;;;23.58;54.43;101738.03;5022183;28;20077;-34
2023/08/13 07:40:57;;;;;;;12.55;2.10;;;;;;;23.59;54.50;101744.28;5018848;28;20392;-33
2023/08/13 07:43:24;;;;;;;14.90;2.47;;;;;;;23.60;54.58;101748.69;5022750;28;20053;-34
2023/08/13 07:45:51;;;;;;;11.27;2.55;;;;;;;23.61;54.36;101751.22;5022549;28;20062;-34
2023/08/13 07:48:18;;;;;;;14.27;2.65;;;;;;;23.62;54.37;101742.09;5023926;28;20107;-34
2023/08/13 07:50:44;;;;;;;14.55;2.70;;;;;;;23.64;54.30;101759.00;5020301;28;20041;-34
2023/08/13 07:53:11;;;;;;;11.38;2.28;;;;;;;23.67;54.56;101759.72;5023360;28;20073;-34
2023/08/13 07:55:38;;;;;;;12.35;2.55;;;;;;;23.67;54.06;101757.00;5024178;28;20048;-34
2023/08/13 07:58:04;;;;;;;9.63;1.70;;;;;;;23.68;53.89;101754.16;5023820;28;20192;-34
2023/08/13 08:00:31;;;;;;;10.43;2.30;;;;;;;23.67;54.13;101744.31;5018638;28;20599;-33
2023/08/13 08:02:58;;;;;;;9.10;2.10;;;;;;;23.68;54.42;101747.84;5022310;28;20811;-33
2023/08/13 08:05:24;;;;;;;8.75;2.03;;;;;;;23.70;53.94;101745.84;5021765;28;20335;-33
2023/08/13 08:07:51;;;;;;;7.32;2.15;;;;;;;23.71;54.31;101751.06;5021520;28;20812;-34
2023/08/13 08:10:18;;;;;;;13.43;2.30;;;;;;;23.72;53.98;101754.63;5019816;28;20077;-34
2023/08/13 08:12:45;;;;;;;7.50;1.70;;;;;;;23.71;53.91;101752.94;5021994;28;20104;-33
2023/08/13 08:15:11;;;;;;;7.57;2.17;;;;;;;23.71;54.01;101752.94;5021701;28;20072;-33
2023/08/13 08:17:38;;;;;;;9.18;1.75;;;;;;;23.70;54.02;101752.09;5023159;28;20061;-33
2023/08/13 08:20:06;;;;;;;11.25;2.28;;;;;;;23.70;53.31;101753.97;5023519;28;20042;-34
2023/08/13 08:22:33;;;;;;;10.63;2.30;;;;;;;23.70;54.07;101762.09;5023650;28;20449;-33
2023/08/13 08:25:00;;;;;;;11.20;2.15;;;;;;;23.70;53.73;101754.81;5023522;28;20041;-33
2023/08/13 08:27:27;;;;;;;6.35;1.90;;;;;;;23.70;54.09;101756.66;5023991;28;20486;-33
2023/08/13 08:29:54;;;;;;;8.98;2.58;;;;;;;23.71;53.69;101756.50;5025914;28;20451;-33
2023/08/13 08:32:21;;;;;;;7.38;1.92;;;;;;;23.70;53.89;101748.53;5019504;28;20053;-33
2023/08/13 08:34:47;;;;;;;5.25;2.10;;;;;;;23.70;53.39;101749.38;5024783;28;20057;-34
2023/08/13 08:37:14;;;;;;;14.15;3.03;;;;;;;23.70;53.50;101745.84;5025155;28;20068;-34
2023/08/13 08:39:41;;;;;;;4.60;1.80;;;;;;;23.71;53.49;101747.53;5027668;28;20049;-34
2023/08/13 08:42:11;;;;;;;6.28;1.75;;;;;;;23.72;53.41;101749.22;5022208;28;20442;-34
2023/08/13 08:44:43;;;;;;;9.75;1.95;;;;;;;23.72;53.82;101747.38;5018615;28;20041;-34
2023/08/13 08:47:10;;;;;;;6.78;1.63;;;;;;;23.73;53.25;101750.94;5018139;28;20045;-34
2023/08/13 08:49:37;;;;;;;8.70;1.90;;;;;;;23.74;53.69;101749.91;5016262;28;20050;-34
2023/08/13 08:52:05;;;;;;;9.98;3.55;;;;;;;23.74;53.15;101744.50;5010379;28;20053;-34
2023/08/13 08:54:37;;;;;;;5.10;1.70;;;;;;;23.76;53.68;101753.28;5020969;28;20149;-34
2023/08/13 08:57:04;;;;;;;8.75;1.90;;;;;;;23.75;53.33;101749.72;5020267;28;20049;-34
2023/08/13 08:59:30;;;;;;;10.23;2.25;;;;;;;23.76;53.37;101742.44;5019641;28;20425;-34
2023/08/13 09:01:58;;;;;;;6.05;1.80;;;;;;;23.76;53.62;101742.44;5020203;28;20054;-34
2023/08/13 09:04:24;;;;;;;7.95;1.42;;;;;;;23.75;52.96;101741.59;5021204;28;20676;-34
2023/08/13 09:07:02;;;;;;;7.95;1.85;;;;;;;23.75;53.36;101740.75;5019580;28;20049;-34
2023/08/13 09:09:31;;;;;;;7.50;1.50;;;;;;;23.76;53.21;101745.16;5019763;28;20041;-34
2023/08/13 09:11:58;;;;;;;3.70;1.17;;;;;;;23.76;53.10;101743.31;5021073;28;20084;-34
2023/08/13 09:14:26;;;;;;;7.90;1.50;;;;;;;23.77;53.12;101738.75;5022752;28;20060;-34
2023/08/13 09:16:55;;;;;;;10.45;1.67;;;;;;;23.78;53.01;101740.44;5021100;28;20115;-34
2023/08/13 09:19:24;;;;;;;4.88;1.25;;;;;;;23.77;53.14;101739.59;5020382;28;20119;-34
2023/08/13 09:21:56;;;;;;;5.82;1.35;;;;;;;23.78;53.00;101740.44;5020316;28;20357;-34
2023/08/13 09:24:37;;;;;;;6.72;1.55;;;;;;;23.77;52.68;101736.03;5020421;28;20060;-34
2023/08/13 09:27:05;;;;;;;5.10;1.35;;;;;;;23.79;53.29;101732.13;5020073;28;20084;-34
2023/08/13 09:29:32;;;;;;;6.28;1.42;;;;;;;23.80;52.81;101732.97;5019603;28;20136;-34
2023/08/13 09:32:00;;;;;;;8.18;1.73;;;;;;;23.80;53.00;101727.53;5020992;28;20049;-34
2023/08/13 09:34:28;;;;;;;8.30;1.67;;;;;;;23.81;53.17;101723.84;5022071;28;20051;-34
2023/08/13 09:36:56;;;;;;;4.20;1.27;;;;;;;23.81;53.36;101719.28;5018238;28;20487;-34
2023/08/13 09:39:25;;;;;;;6.43;1.45;;;;;;;23.82;53.37;101720.97;5017658;28;20096;-34
2023/08/13 09:41:52;;;;;;;3.90;1.13;;;;;;;23.84;53.18;101712.66;5016017;28;20148;-34
2023/08/13 09:44:21;;;;;;;4.90;1.30;;;;;;;23.84;53.36;101712.66;5021443;28;20053;-34
2023/08/13 09:46:53;;;;;;;7.57;1.67;;;;;;;23.85;53.04;101703.53;5018876;28;20069;-34
2023/08/13 09:49:22;;;;;;;8.27;1.60;;;;;;;23.86;53.28;101710.63;5016240;28;20091;-34
2023/08/13 09:51:51;;;;;;;6.22;1.80;;;;;;;23.87;52.70;101706.91;5017527;28;20112;-34
2023/08/13 09:54:29;;;;;;;11.38;1.77;;;;;;;23.89;53.10;101707.59;5021061;28;21711;-34
2023/08/13 09:57:03;;;;;;;7.63;2.08;;;;;;;23.88;52.50;101709.47;5018862;28;20345;-34
2023/08/13 09:59:33;;;;;;;7.00;1.60;;;;;;;23.89;52.46;101708.44;5020311;28;20631;-34
2023/08/13 10:02:01;;;;;;;10.32;2.53;;;;;;;23.90;53.18;101711.97;5021413;28;20499;-34
2023/08/13 10:04:28;;;;;;;12.40;2.50;;;;;;;23.92;53.39;101709.09;5021098;28;20156;-34
2023/08/13 10:06:56;;;;;;;4.50;1.73;;;;;;;23.92;52.72;101707.25;5020248;28;20057;-33
2023/08/13 10:09:25;;;;;;;11.18;2.00;;;;;;;23.94;53.34;101707.06;5020403;28;20119;-33
2023/08/13 10:11:52;;;;;;;9.73;1.75;;;;;;;23.95;53.49;101709.59;5018243;28;20065;-33
2023/08/13 10:14:19;;;;;;;7.90;1.83;;;;;;;23.95;53.29;101706.88;5021709;28;20042;-33
2023/08/13 10:16:46;;;;;;;8.65;1.73;;;;;;;23.94;52.39;101697.09;5018726;28;20162;-33
2023/08/13 10:19:14;;;;;;;7.43;2.15;;;;;;;23.94;52.13;101707.91;5018673;28;20054;-34
2023/08/13 10:21:41;;;;;;;8.52;1.70;;;;;;;23.96;52.58;101707.72;5017332;28;20057;-33
2023/08/13 10:24:12;;;;;;;6.43;1.70;;;;;;;23.96;52.71;101697.78;5016477;28;20053;-34
2023/08/13 10:26:45;;;;;;;8.40;1.70;;;;;;;23.97;52.36;101704.03;5017235;28;20053;-33
2023/08/13 10:29:19;;;;;;;9.48;2.05;;;;;;;23.96;52.14;101699.59;5019564;28;20111;-33
2023/08/13 10:31:58;;;;;;;7.88;1.80;;;;;;;23.96;52.10;101703.19;5017015;28;20054;-33
2023/08/13 10:34:40;;;;;;;4.88;1.25;;;;;;;23.95;51.79;101700.63;5017857;28;20057;-33
2023/08/13 10:37:18;;;;;;;8.00;2.83;;;;;;;23.99;52.34;101705.53;5014672;28;20172;-34
2023/08/13 10:39:47;;;;;;;9.25;2.28;;;;;;;23.99;51.68;101699.28;5018757;28;20178;-33
2023/08/13 10:42:37;;;;;;;5.82;1.70;;;;;;;23.99;52.07;101696.56;5020529;28;20060;-33
2023/08/13 10:45:05;;;;;;;8.88;1.75;;;;;;;24.01;51.50;101703.50;5022033;28;20041;-33
2023/08/13 10:47:49;;;;;;;3.67;1.10;;;;;;;23.99;51.12;101708.25;5017728;28;20119;-33
2023/08/13 10:50:28;;;;;;;6.72;1.35;;;;;;;23.99;50.94;101700.09;5015106;28;20042;-33
2023/08/13 10:53:04;;;;;;;8.43;1.30;;;;;;;23.99;51.36;101705.53;5019055;28;20065;-34
2023/08/13 10:55:33;;;;;;;6.78;1.75;;;;;;;24.00;51.48;101700.94;5017896;28;20138;-34
2023/08/13 10:58:00;;;;;;;4.03;1.13;;;;;;;24.00;51.12;101701.81;5018019;28;20053;-33
2023/08/13 11:00:27;;;;;;;4.28;1.20;;;;;;;24.00;51.46;101703.66;5017182;28;20322;-34
2023/08/13 11:03:14;;;;;;;4.60;1.40;;;;;;;23.99;51.62;101710.09;5014907;28;20057;-33
2023/08/13 11:05:42;;;;;;;4.65;1.48;;;;;;;24.00;51.15;101707.25;5016172;28;20053;-34
2023/08/13 11:08:14;;;;;;;5.35;1.40;;;;;;;23.99;51.60;101705.53;5015744;28;20057;-34
2023/08/13 11:10:41;;;;;;;3.15;1.20;;;;;;;24.01;50.95;101692.69;5018298;28;20375;-33
2023/08/13 11:13:08;;;;;;;5.40;1.48;;;;;;;24.02;51.25;101696.22;5022504;28;20103;-33
2023/08/13 11:15:35;;;;;;;5.90;1.58;;;;;;;24.01;51.73;101673.72;5016774;28;20045;-34
2023/08/13 11:18:01;;;;;;;3.72;1.10;;;;;;;24.05;51.44;101688.59;5020005;28;20041;-33
2023/08/13 11:20:28;;;;;;;9.55;1.13;;;;;;;24.09;50.77;101679.13;5016427;28;20395;-33
2023/08/13 11:22:55;;;;;;;6.03;1.17;;;;;;;24.14;51.35;101686.72;5015100;28;20061;-34
2023/08/13 11:25:21;;;;;;;4.75;1.35;;;;;;;24.19;51.14;101688.91;5021094;28;20046;-33
2023/08/13 11:27:48;;;;;;;8.30;1.25;;;;;;;24.24;51.45;101686.50;5019747;28;20073;-33